createdAt,value
2023-04-15T00:00:58.351Z,97731.06
2023-04-15T00:03:26.763Z,97736.56
2023-04-15T00:05:54.982Z,97732.72
2023-04-15T00:08:23.054Z,97736.34
2023-04-15T00:10:52.330Z,97734.63
2023-04-15T00:13:20.286Z,97741.78
2023-04-15T00:15:48.635Z,97736.59
2023-04-15T00:18:16.514Z,97732.22
2023-04-15T00:20:44.411Z,97743.53
2023-04-15T00:23:12.218Z,97744.59
2023-04-15T00:25:40.132Z,97737.38
2023-04-15T00:28:09.891Z,97735.47
2023-04-15T00:30:38.061Z,97736.25
2023-04-15T00:33:06.789Z,97723.91
2023-04-15T00:35:34.781Z,97734.50
2023-04-15T00:38:02.668Z,97732.06
2023-04-15T00:40:30.710Z,97732.66
2023-04-15T00:42:58.702Z,97729.06
2023-04-15T00:45:28.722Z,97721.00
2023-04-15T00:47:57.209Z,97723.81
2023-04-15T00:50:25.167Z,97721.66
2023-04-15T00:52:53.062Z,97716.59
2023-04-15T00:55:20.916Z,97715.13
2023-04-15T00:57:49.515Z,97728.16
2023-04-15T01:00:18.090Z,97728.75
2023-04-15T01:02:48.778Z,97724.22
2023-04-15T01:05:18.690Z,97736.06
2023-04-15T01:07:46.819Z,97736.88
2023-04-15T01:10:14.669Z,97741.81
2023-04-15T01:12:44.667Z,97735.16
2023-04-15T01:15:12.728Z,97739.53
2023-04-15T01:17:40.836Z,97733.66
2023-04-15T01:20:12.149Z,97740.47
2023-04-15T01:22:40.734Z,97736.72
2023-04-15T01:25:13.141Z,97735.13
2023-04-15T01:27:43.312Z,97737.13
2023-04-15T01:30:12.163Z,97739.63
2023-04-15T01:32:40.175Z,97736.56
2023-04-15T01:35:08.771Z,97735.75
2023-04-15T01:37:37.853Z,97738.34
2023-04-15T01:40:06.911Z,97733.63
2023-04-15T01:42:36.860Z,97730.28
2023-04-15T01:45:07.297Z,97745.16
2023-04-15T01:47:35.701Z,97727.38
2023-04-15T01:50:03.752Z,97734.28
2023-04-15T01:52:32.190Z,97729.47
2023-04-15T01:55:00.065Z,97728.53
2023-04-15T01:57:28.205Z,97729.72
2023-04-15T01:59:56.690Z,97741.09
2023-04-15T02:02:26.383Z,97733.25
2023-04-15T02:04:57.255Z,97731.25
2023-04-15T02:07:25.512Z,97730.97
2023-04-15T02:09:55.738Z,97725.38
2023-04-15T02:12:23.614Z,97720.84
2023-04-15T02:14:51.565Z,97728.22
2023-04-15T02:17:19.592Z,97718.75
2023-04-15T02:19:49.512Z,97729.22
2023-04-15T02:22:18.913Z,97720.81
2023-04-15T02:24:47.809Z,97723.38
2023-04-15T02:27:19.268Z,97714.34
2023-04-15T02:29:47.500Z,97710.19
2023-04-15T02:32:15.417Z,97713.75
2023-04-15T02:34:43.673Z,97707.78
2023-04-15T02:37:14.254Z,97714.78
2023-04-15T02:39:42.305Z,97719.44
2023-04-15T02:42:13.220Z,97718.06
2023-04-15T02:44:41.148Z,97713.91
2023-04-15T02:47:09.180Z,97717.13
2023-04-15T02:49:37.110Z,97719.88
2023-04-15T02:52:04.958Z,97710.56
2023-04-15T02:54:34.333Z,97715.31
2023-04-15T02:57:02.804Z,97715.41
2023-04-15T02:59:30.843Z,97715.59
2023-04-15T03:02:00.977Z,97713.28
2023-04-15T03:04:32.098Z,97718.91
2023-04-15T03:07:00.971Z,97723.38
2023-04-15T03:09:28.988Z,97722.34
2023-04-15T03:11:58.334Z,97726.94
2023-04-15T03:14:27.101Z,97723.72
2023-04-15T03:16:56.118Z,97727.25
2023-04-15T03:19:25.023Z,97720.09
2023-04-15T03:21:53.144Z,97723.22
2023-04-15T03:24:21.654Z,97717.84
2023-04-15T03:26:49.507Z,97719.44
2023-04-15T03:29:21.273Z,97714.97
2023-04-15T03:31:49.708Z,97721.88
2023-04-15T03:34:18.149Z,97722.91
2023-04-15T03:36:47.468Z,97721.91
2023-04-15T03:39:15.392Z,97712.38
2023-04-15T03:41:43.220Z,97715.97
2023-04-15T03:44:11.176Z,97721.00
2023-04-15T03:46:40.439Z,97718.50
2023-04-15T03:49:08.987Z,97712.22
2023-04-15T03:51:36.912Z,97715.16
2023-04-15T03:54:04.950Z,97714.75
2023-04-15T03:56:32.836Z,97723.50
2023-04-15T03:59:01.455Z,97716.59
2023-04-15T04:01:29.592Z,97725.81
2023-04-15T04:03:58.898Z,97725.41
2023-04-15T04:06:27.424Z,97728.38
2023-04-15T04:08:55.903Z,97726.19
2023-04-15T04:11:23.674Z,97725.91
2023-04-15T04:13:51.596Z,97726.00
2023-04-15T04:16:19.584Z,97729.28
2023-04-15T04:18:47.752Z,97727.88
2023-04-15T04:21:17.204Z,97726.63
2023-04-15T04:23:45.492Z,97725.63
2023-04-15T04:26:13.452Z,97727.16
2023-04-15T04:28:41.600Z,97730.16
2023-04-15T04:31:09.487Z,97739.66
2023-04-15T04:33:37.344Z,97732.25
2023-04-15T04:36:05.973Z,97731.38
2023-04-15T04:38:35.316Z,97743.50
2023-04-15T04:41:03.317Z,97738.84
2023-04-15T04:43:31.943Z,97744.56
2023-04-15T04:45:59.815Z,97744.13
2023-04-15T04:48:27.612Z,97745.19
2023-04-15T04:50:55.733Z,97743.28
2023-04-15T04:53:23.562Z,97744.97
2023-04-15T04:55:53.134Z,97750.25
2023-04-15T04:58:21.421Z,97743.06
2023-04-15T05:00:49.422Z,97740.38
2023-04-15T05:03:17.603Z,97746.72
2023-04-15T05:05:45.869Z,97748.44
2023-04-15T05:08:13.751Z,97747.84
2023-04-15T05:10:41.812Z,97745.34
2023-04-15T05:13:11.095Z,97744.09
2023-04-15T05:15:41.213Z,97752.41
2023-04-15T05:18:09.138Z,97748.97
2023-04-15T05:20:37.060Z,97749.38
2023-04-15T05:23:04.924Z,97751.13
2023-04-15T05:25:32.750Z,97753.91
2023-04-15T05:28:00.601Z,97756.19
2023-04-15T05:30:30.656Z,97749.41
2023-04-15T05:32:58.724Z,97752.13
2023-04-15T05:35:27.427Z,97751.75
2023-04-15T05:37:55.442Z,97754.94
2023-04-15T05:40:23.456Z,97745.53
2023-04-15T05:42:51.332Z,97746.03
2023-04-15T05:45:19.350Z,97745.84
2023-04-15T05:47:50.434Z,97752.22
2023-04-15T05:50:18.599Z,97750.72
2023-04-15T05:52:46.923Z,97757.69
2023-04-15T05:55:15.562Z,97755.84
2023-04-15T05:57:43.573Z,97759.81
2023-04-15T06:00:13.193Z,97757.56
2023-04-15T06:02:41.784Z,97750.53
2023-04-15T06:05:11.897Z,97757.91
2023-04-15T06:07:40.122Z,97766.88
2023-04-15T06:10:09.263Z,97760.38
2023-04-15T06:12:37.404Z,97759.06
2023-04-15T06:15:06.725Z,97766.53
2023-04-15T06:17:34.921Z,97758.66
2023-04-15T06:20:03.790Z,97758.16
2023-04-15T06:22:33.208Z,97761.81
2023-04-15T06:25:01.256Z,97761.28
2023-04-15T06:27:29.263Z,97763.84
2023-04-15T06:29:57.171Z,97762.91
2023-04-15T06:32:25.330Z,97759.09
2023-04-15T06:34:53.425Z,97765.53
2023-04-15T06:37:21.467Z,97765.72
2023-04-15T06:39:51.081Z,97771.44
2023-04-15T06:42:19.464Z,97775.94
2023-04-15T06:44:47.996Z,97777.25
2023-04-15T06:47:16.098Z,97774.44
2023-04-15T06:49:44.975Z,97768.94
2023-04-15T06:52:16.784Z,97767.13
2023-04-15T06:54:45.200Z,97772.09
2023-04-15T06:57:14.721Z,97779.72
2023-04-15T06:59:43.685Z,97774.91
2023-04-15T07:02:15.272Z,97777.88
2023-04-15T07:04:43.216Z,97771.19
2023-04-15T07:07:11.248Z,97779.22
2023-04-15T07:09:39.566Z,97774.28
2023-04-15T07:12:07.713Z,97773.50
2023-04-15T07:14:38.370Z,97767.69
2023-04-15T07:17:06.800Z,97762.66
2023-04-15T07:19:36.163Z,97765.16
2023-04-15T07:22:05.333Z,97761.59
2023-04-15T07:24:34.439Z,97761.91
2023-04-15T07:27:06.352Z,97764.81
2023-04-15T07:29:38.120Z,97758.38
2023-04-15T07:32:08.937Z,97758.84
2023-04-15T07:34:39.118Z,97760.47
2023-04-15T07:37:07.785Z,97754.22
2023-04-15T07:39:40.786Z,97750.91
2023-04-15T07:42:09.845Z,97746.16
2023-04-15T07:44:45.788Z,97756.28
2023-04-15T07:47:27.272Z,97745.09
2023-04-15T07:49:58.755Z,97755.00
2023-04-15T07:52:29.953Z,97750.25
2023-04-15T07:55:23.916Z,97755.31
2023-04-15T07:58:06.638Z,97743.13
2023-04-15T08:00:40.953Z,97741.09
2023-04-15T08:03:12.665Z,97744.78
2023-04-15T08:05:52.001Z,97744.78
2023-04-15T08:08:48.477Z,97749.09
2023-04-15T08:11:35.001Z,97743.16
2023-04-15T08:14:08.905Z,97737.19
2023-04-15T08:16:41.439Z,97736.19
2023-04-15T08:19:09.480Z,97730.63
2023-04-15T08:21:37.898Z,97744.56
2023-04-15T08:24:07.064Z,97737.75
2023-04-15T08:26:37.667Z,97746.41
2023-04-15T08:29:11.848Z,97745.09
2023-04-15T08:31:42.171Z,97738.84
2023-04-15T08:34:11.150Z,97734.81
2023-04-15T08:36:43.090Z,97733.97
2023-04-15T08:39:12.479Z,97729.28
2023-04-15T08:41:41.884Z,97728.13
2023-04-15T08:44:11.977Z,97724.72
2023-04-15T08:46:43.425Z,97733.47
2023-04-15T08:49:16.216Z,97737.84
2023-04-15T08:51:45.423Z,97731.06
2023-04-15T08:54:19.623Z,97739.88
2023-04-15T08:56:55.106Z,97737.50
2023-04-15T08:59:23.935Z,97730.22
2023-04-15T09:02:02.096Z,97731.72
2023-04-15T09:04:43.609Z,97730.66
2023-04-15T09:07:13.535Z,97724.34
2023-04-15T09:09:50.209Z,97731.38
2023-04-15T09:12:40.023Z,97725.50
2023-04-15T09:15:12.778Z,97735.84
2023-04-15T09:17:47.814Z,97731.44
2023-04-15T09:20:20.153Z,97733.47
2023-04-15T09:22:56.946Z,97735.94
2023-04-15T09:25:29.652Z,97743.69
2023-04-15T09:28:05.815Z,97732.19
2023-04-15T09:30:50.877Z,97731.72
2023-04-15T09:33:23.129Z,97748.81
2023-04-15T09:36:03.017Z,97754.16
2023-04-15T09:38:34.307Z,97751.66
2023-04-15T09:41:04.446Z,97751.97
2023-04-15T09:43:40.918Z,97757.81
2023-04-15T09:46:14.941Z,97766.69
2023-04-15T09:48:46.140Z,97762.16
2023-04-15T09:51:16.193Z,97756.03
2023-04-15T09:53:58.053Z,97761.50
2023-04-15T09:56:33.778Z,97767.97
2023-04-15T09:59:01.912Z,97754.69
2023-04-15T10:01:38.685Z,97768.75
2023-04-15T10:04:12.579Z,97766.09
2023-04-15T10:06:41.901Z,97767.66
2023-04-15T10:09:11.150Z,97773.97
2023-04-15T10:11:40.813Z,97770.25
2023-04-15T10:14:12.099Z,97768.81
2023-04-15T10:16:46.543Z,97762.31
2023-04-15T10:19:20.021Z,97765.97
2023-04-15T10:21:49.565Z,97759.25
2023-04-15T10:24:18.920Z,97767.31
2023-04-15T10:26:48.405Z,97776.84
2023-04-15T10:29:19.460Z,97777.16
2023-04-15T10:31:49.269Z,97769.09
2023-04-15T10:34:21.167Z,97772.91
2023-04-15T10:36:52.372Z,97779.81
2023-04-15T10:39:45.735Z,97782.66
2023-04-15T10:42:16.366Z,97787.16
2023-04-15T10:44:47.970Z,97789.13
2023-04-15T10:47:20.270Z,97787.97
2023-04-15T10:49:52.997Z,97777.16
2023-04-15T10:52:26.193Z,97794.81
2023-04-15T10:55:06.163Z,97792.41
2023-04-15T10:57:46.417Z,97788.75
2023-04-15T11:00:17.701Z,97790.47
2023-04-15T11:02:51.400Z,97788.47
2023-04-15T11:05:24.037Z,97771.09
2023-04-15T11:07:57.053Z,97780.44
2023-04-15T11:10:53.914Z,97782.78
2023-04-15T11:13:25.891Z,97772.63
2023-04-15T11:16:01.092Z,97775.78
2023-04-15T11:18:36.078Z,97786.13
2023-04-15T11:21:12.219Z,97785.16
2023-04-15T11:23:44.348Z,97774.59
2023-04-15T11:26:13.352Z,97781.19
2023-04-15T11:28:43.292Z,97774.34
2023-04-15T11:31:13.311Z,97775.00
2023-04-15T11:33:55.105Z,97772.00
2023-04-15T11:36:28.624Z,97787.47
2023-04-15T11:39:00.215Z,97798.94
2023-04-15T11:41:31.845Z,97803.81
2023-04-15T11:44:00.866Z,97802.44
2023-04-15T11:46:37.700Z,97806.19
2023-04-15T11:49:27.514Z,97808.09
2023-04-15T11:51:57.970Z,97805.03
2023-04-15T11:54:28.203Z,97793.72
2023-04-15T11:56:57.654Z,97797.88
2023-04-15T11:59:30.229Z,97792.94
2023-04-15T12:02:14.514Z,97803.06
2023-04-15T12:04:54.679Z,97800.59
2023-04-15T12:07:25.679Z,97818.09
2023-04-15T12:09:56.821Z,97823.94
2023-04-15T12:12:29.349Z,97825.34
2023-04-15T12:15:08.890Z,97829.13
2023-04-15T12:17:51.123Z,97836.53
2023-04-15T12:20:28.065Z,97851.59
2023-04-15T12:23:07.984Z,97893.81
2023-04-15T12:25:37.634Z,97917.66
2023-04-15T12:28:13.955Z,97932.72
2023-04-15T12:30:51.703Z,97942.72
2023-04-15T12:33:21.946Z,97951.66
2023-04-15T12:35:52.662Z,97945.97
2023-04-15T12:38:22.600Z,97937.03
2023-04-15T12:40:50.507Z,97927.09
2023-04-15T12:43:18.396Z,97938.41
2023-04-15T12:45:46.795Z,97933.44
2023-04-15T12:48:14.815Z,97935.97
2023-04-15T12:50:42.762Z,97931.88
2023-04-15T12:53:13.726Z,97939.84
2023-04-15T12:55:43.818Z,97936.78
2023-04-15T12:58:12.505Z,97950.13
2023-04-15T13:00:40.727Z,97942.31
2023-04-15T13:03:08.685Z,97933.34
2023-04-15T13:05:39.242Z,97936.22
2023-04-15T13:08:07.906Z,97923.06
2023-04-15T13:10:38.123Z,97935.06
2023-04-15T13:13:07.966Z,97933.00
2023-04-15T13:15:36.447Z,97934.97
2023-04-15T13:18:04.620Z,97941.91
2023-04-15T13:20:32.481Z,97946.75
2023-04-15T13:23:03.015Z,97952.63
2023-04-15T13:25:32.964Z,97956.50
2023-04-15T13:28:02.924Z,97963.56
2023-04-15T13:30:33.836Z,97964.72
2023-04-15T13:33:02.550Z,97965.50
2023-04-15T13:35:31.212Z,97972.06
2023-04-15T13:38:05.662Z,97968.38
2023-04-15T13:40:41.522Z,97962.13
2023-04-15T13:43:12.544Z,97968.00
2023-04-15T13:45:43.594Z,97975.13
2023-04-15T13:48:16.614Z,97969.59
2023-04-15T13:50:45.653Z,97971.75
2023-04-15T13:53:17.694Z,97978.31
2023-04-15T13:55:46.340Z,97975.88
2023-04-15T13:58:14.302Z,97978.75
2023-04-15T14:00:43.696Z,97985.31
2023-04-15T14:03:12.170Z,97985.50
2023-04-15T14:05:40.694Z,97986.81
2023-04-15T14:08:09.497Z,97978.88
2023-04-15T14:10:38.586Z,97972.38
2023-04-15T14:13:08.015Z,97973.72
2023-04-15T14:15:36.848Z,97983.78
2023-04-15T14:18:08.340Z,97996.31
2023-04-15T14:20:37.312Z,98003.31
2023-04-15T14:23:10.126Z,98010.59
2023-04-15T14:25:43.598Z,98004.41
2023-04-15T14:28:15.459Z,98014.47
2023-04-15T14:30:43.989Z,98011.47
2023-04-15T14:33:14.206Z,98014.13
2023-04-15T14:35:42.082Z,98017.97
2023-04-15T14:38:11.280Z,98029.03
2023-04-15T14:40:39.827Z,98035.47
2023-04-15T14:43:10.594Z,98042.56
2023-04-15T14:45:46.699Z,98049.44
2023-04-15T14:48:40.714Z,98050.25
2023-04-15T14:51:28.041Z,98055.84
2023-04-15T14:54:21.879Z,98063.94
2023-04-15T14:56:55.979Z,98057.50
2023-04-15T14:59:28.002Z,98073.88
2023-04-15T15:01:56.908Z,98071.31
2023-04-15T15:04:26.894Z,98072.03
2023-04-15T15:06:55.917Z,98080.94
2023-04-15T15:09:27.534Z,98082.03
2023-04-15T15:11:57.034Z,98087.00
2023-04-15T15:14:25.740Z,98078.88
2023-04-15T15:16:54.074Z,98093.34
2023-04-15T15:19:24.080Z,98085.28
2023-04-15T15:21:55.100Z,98084.19
2023-04-15T15:24:57.417Z,98096.28
2023-04-15T15:27:46.704Z,98098.97
2023-04-15T15:30:15.591Z,98102.09
2023-04-15T15:32:45.037Z,98109.88
2023-04-15T15:35:15.817Z,98108.72
2023-04-15T15:37:47.022Z,98120.16
2023-04-15T15:40:15.440Z,98114.03
2023-04-15T15:42:43.298Z,98109.88
2023-04-15T15:45:26.629Z,98112.69
2023-04-15T15:47:57.094Z,98116.66
2023-04-15T15:50:26.926Z,98123.91
2023-04-15T15:52:58.573Z,98119.78
2023-04-15T15:55:27.370Z,98134.50
2023-04-15T15:58:03.460Z,98135.75
2023-04-15T16:03:32.828Z,98155.13
2023-04-15T16:06:02.265Z,98159.25
2023-04-15T16:08:33.282Z,98159.66
2023-04-15T16:11:03.776Z,98165.63
2023-04-15T16:13:37.267Z,98164.72
2023-04-15T16:16:12.545Z,98181.41
2023-04-15T16:18:43.506Z,98179.56
2023-04-15T16:21:11.511Z,98175.13
2023-04-15T16:23:41.630Z,98184.66
2023-04-15T16:26:10.574Z,98180.72
2023-04-15T16:28:39.260Z,98193.84
2023-04-15T16:31:07.656Z,98199.69
2023-04-15T16:33:36.235Z,98197.94
2023-04-15T16:36:07.960Z,98193.69
2023-04-15T16:38:40.995Z,98206.13
2023-04-15T16:41:09.679Z,98210.19
2023-04-15T16:43:40.653Z,98214.75
2023-04-15T16:46:08.941Z,98219.97
2023-04-15T16:48:38.603Z,98224.97
2023-04-15T16:51:07.932Z,98230.69
2023-04-15T16:53:36.637Z,98234.78
2023-04-15T16:56:08.469Z,98237.88
2023-04-15T16:58:36.711Z,98237.34
2023-04-15T17:01:04.632Z,98239.06
2023-04-15T17:03:37.002Z,98244.03
2023-04-15T17:06:05.484Z,98244.28
2023-04-15T17:08:33.474Z,98236.19
2023-04-15T17:11:01.950Z,98255.13
2023-04-15T17:13:31.706Z,98266.94
2023-04-15T17:15:59.655Z,98274.59
2023-04-15T17:18:28.085Z,98266.94
2023-04-15T17:20:56.498Z,98274.06
2023-04-15T17:23:24.528Z,98277.94
2023-04-15T17:25:53.410Z,98284.00
2023-04-15T17:28:21.485Z,98280.88
2023-04-15T17:30:51.042Z,98291.44
2023-04-15T17:33:50.545Z,98286.63
2023-04-15T17:36:08.768Z,98293.84
2023-04-15T17:38:36.680Z,98305.38
2023-04-15T17:41:08.021Z,98308.47
2023-04-15T17:43:36.553Z,98318.81
2023-04-15T17:46:08.017Z,98312.81
2023-04-15T17:49:05.304Z,98323.25
2023-04-15T17:51:33.789Z,98322.06
2023-04-15T17:54:08.353Z,98325.50
2023-04-15T17:56:37.158Z,98329.88
2023-04-15T17:59:07.476Z,98325.28
2023-04-15T18:01:37.262Z,98338.25
2023-04-15T18:04:06.609Z,98335.25
2023-04-15T18:06:36.837Z,98333.84
2023-04-15T18:09:05.730Z,98338.75
2023-04-15T18:11:34.467Z,98335.84
2023-04-15T18:14:04.668Z,98343.78
2023-04-15T18:16:33.332Z,98341.91
2023-04-15T18:19:02.905Z,98350.06
2023-04-15T18:21:31.456Z,98352.69
2023-04-15T18:23:59.713Z,98357.00
2023-04-15T18:26:29.252Z,98359.88
2023-04-15T18:28:57.476Z,98366.16
2023-04-15T18:31:25.509Z,98367.34
2023-04-15T18:33:57.025Z,98369.25
2023-04-15T18:36:27.530Z,98370.56
2023-04-15T18:38:55.908Z,98378.09
2023-04-15T18:41:25.399Z,98380.97
2023-04-15T18:43:54.807Z,98382.44
2023-04-15T18:46:22.922Z,98387.59
2023-04-15T18:48:51.058Z,98388.00
2023-04-15T18:51:19.720Z,98392.19
2023-04-15T18:53:50.297Z,98396.84
2023-04-15T18:56:19.289Z,98402.28
2023-04-15T18:59:26.434Z,98403.78
2023-04-15T19:01:42.862Z,98404.47
2023-04-15T19:04:11.956Z,98405.81
2023-04-15T19:06:41.746Z,98414.22
2023-04-15T19:09:14.315Z,98416.28
2023-04-15T19:11:43.785Z,98416.38
2023-04-15T19:14:12.510Z,98427.59
2023-04-15T19:16:42.811Z,98422.84
2023-04-15T19:19:14.452Z,98427.28
2023-04-15T19:21:42.919Z,98430.63
2023-04-15T19:24:11.478Z,98428.63
2023-04-15T19:26:41.214Z,98436.19
2023-04-15T19:29:09.358Z,98439.53
2023-04-15T19:31:37.810Z,98435.59
2023-04-15T19:34:06.491Z,98433.50
2023-04-15T19:36:34.963Z,98448.47
2023-04-15T19:39:03.467Z,98441.00
2023-04-15T19:41:31.874Z,98436.00
2023-04-15T19:44:01.347Z,98444.81
2023-04-15T19:46:32.412Z,98444.25
2023-04-15T19:49:01.396Z,98443.69
2023-04-15T19:51:29.941Z,98447.16
2023-04-15T19:53:59.576Z,98451.44
2023-04-15T19:56:27.662Z,98448.38
2023-04-15T19:58:56.880Z,98446.38
2023-04-15T20:01:27.240Z,98454.81
2023-04-15T20:03:55.905Z,98449.75
2023-04-15T20:06:24.159Z,98450.03
2023-04-15T20:08:53.034Z,98464.63
2023-04-15T20:11:22.263Z,98456.72
2023-04-15T20:13:51.174Z,98454.75
2023-04-15T20:16:19.648Z,98462.28
2023-04-15T20:18:49.287Z,98453.22
2023-04-15T20:21:19.963Z,98455.91
2023-04-15T20:23:54.358Z,98451.03
2023-04-15T20:26:29.915Z,98454.88
2023-04-15T20:29:00.642Z,98455.13
2023-04-15T20:31:29.202Z,98457.22
2023-04-15T20:33:58.902Z,98457.56
2023-04-15T20:36:27.683Z,98461.66
2023-04-15T20:38:55.680Z,98459.22
2023-04-15T20:41:23.973Z,98465.31
2023-04-15T20:43:52.611Z,98456.75
2023-04-15T20:46:21.777Z,98456.53
2023-04-15T20:48:50.709Z,98459.03
2023-04-15T20:51:24.889Z,98459.06
2023-04-15T20:53:52.964Z,98463.69
2023-04-15T20:56:21.376Z,98466.03
2023-04-15T20:58:49.244Z,98474.41
2023-04-15T21:01:17.276Z,98469.38
2023-04-15T21:03:46.446Z,98481.06
2023-04-15T21:06:15.140Z,98475.84
2023-04-15T21:08:45.112Z,98475.84
2023-04-15T21:11:18.903Z,98483.19
2023-04-15T21:13:57.109Z,98479.53
2023-04-15T21:16:25.327Z,98479.13
2023-04-15T21:18:54.600Z,98477.81
2023-04-15T21:21:23.112Z,98484.03
2023-04-15T21:23:52.719Z,98495.31
2023-04-15T21:26:21.056Z,98489.81
2023-04-15T21:28:49.835Z,98489.38
2023-04-15T21:31:18.296Z,98494.22
2023-04-15T21:33:47.920Z,98501.13
2023-04-15T21:36:16.153Z,98502.97
2023-04-15T21:38:44.050Z,98506.91
2023-04-15T21:41:13.523Z,98503.28
2023-04-15T21:43:41.456Z,98507.97
2023-04-15T21:46:22.294Z,98509.53
2023-04-15T21:48:52.065Z,98517.22
2023-04-15T21:51:20.119Z,98516.34
2023-04-15T21:53:48.476Z,98524.41
2023-04-15T21:56:17.741Z,98512.69
2023-04-15T21:58:45.605Z,98525.94
2023-04-15T22:01:14.326Z,98525.69
2023-04-15T22:03:42.744Z,98526.66
2023-04-15T22:06:11.248Z,98522.03
2023-04-15T22:08:52.405Z,98527.94
2023-04-15T22:11:28.220Z,98533.13
2023-04-15T22:13:57.665Z,98536.56
2023-04-15T22:16:26.291Z,98535.16
2023-04-15T22:18:54.677Z,98535.84
2023-04-15T22:21:22.767Z,98541.75
2023-04-15T22:23:51.064Z,98547.84
2023-04-15T22:26:19.196Z,98542.88
2023-04-15T22:28:48.541Z,98544.91
2023-04-15T22:31:16.497Z,98549.53
2023-04-15T22:33:44.467Z,98554.91
2023-04-15T22:36:13.652Z,98549.31
2023-04-15T22:38:41.687Z,98555.63
2023-04-15T22:41:10.439Z,98555.03
2023-04-15T22:43:38.465Z,98560.06
2023-04-15T22:46:07.999Z,98559.91
2023-04-15T22:48:36.107Z,98567.47
2023-04-15T22:51:04.836Z,98564.03
2023-04-15T22:53:33.299Z,98567.16
2023-04-15T22:56:02.724Z,98566.19
2023-04-15T22:58:33.053Z,98571.66
2023-04-15T23:01:01.264Z,98574.09
2023-04-15T23:03:31.047Z,98574.81
2023-04-15T23:05:59.042Z,98574.56
2023-04-15T23:08:26.859Z,98571.88
2023-04-15T23:10:54.731Z,98582.00
2023-04-15T23:13:22.609Z,98578.38
2023-04-15T23:15:50.696Z,98574.88
2023-04-15T23:18:18.749Z,98576.66
2023-04-15T23:20:48.351Z,98574.22
2023-04-15T23:23:16.606Z,98577.63
2023-04-15T23:25:44.777Z,98581.19
2023-04-15T23:28:13.113Z,98578.66
2023-04-15T23:30:41.228Z,98590.22
2023-04-15T23:33:09.297Z,98589.56
2023-04-15T23:35:37.877Z,98593.41
2023-04-15T23:38:07.090Z,98600.56
2023-04-15T23:40:35.030Z,98597.41
2023-04-15T23:43:02.907Z,98597.41
2023-04-15T23:45:30.928Z,98601.53
2023-04-15T23:47:59.180Z,98598.88
2023-04-15T23:50:28.171Z,98594.25
2023-04-15T23:52:56.383Z,98598.72
2023-04-15T23:55:25.964Z,98596.16
2023-04-15T23:57:53.990Z,98601.97
